sensor_id;sensor_type;location;lat;lon;timestamp;pressure;altitude;pressure_sealevel;temperature;humidity
29239;BME280;16267;48.194;11.546;2024-03-17T00:01:38;96648.41;;;9.18;100.00
29239;BME280;16267;48.194;11.546;2024-03-17T00:06:34;96639.97;;;9.16;100.00
29239;BME280;16267;48.194;11.546;2024-03-17T00:09:00;96638.03;;;9.13;100.00
29239;BME280;16267;48.194;11.546;2024-03-17T00:11:34;96646.06;;;9.09;100.00
29239;BME280;16267;48.194;11.546;2024-03-17T00:14:01;96641.81;;;9.05;100.00
29239;BME280;16267;48.194;11.546;2024-03-17T00:16:27;96640.69;;;9.09;100.00
29239;BME280;16267;48.194;11.546;2024-03-17T00:18:54;96629.59;;;9.04;100.00
29239;BME280;16267;48.194;11.546;2024-03-17T00:21:21;96634.94;;;9.07;100.00
29239;BME280;16267;48.194;11.546;2024-03-17T00:23:50;96642.59;;;9.09;100.00
29239;BME280;16267;48.194;11.546;2024-03-17T00:26:16;96650.25;;;9.10;100.00
29239;BME280;16267;48.194;11.546;2024-03-17T00:28:42;96652.94;;;9.10;100.00
29239;BME280;16267;48.194;11.546;2024-03-17T00:31:08;96642.22;;;9.10;100.00
29239;BME280;16267;48.194;11.546;2024-03-17T00:33:37;96652.94;;;9.10;100.00
29239;BME280;16267;48.194;11.546;2024-03-17T00:36:02;96648.34;;;9.07;100.00
29239;BME280;16267;48.194;11.546;2024-03-17T00:38:28;96652.94;;;9.07;100.00
29239;BME280;16267;48.194;11.546;2024-03-17T00:40:54;96658.66;;;9.09;100.00
29239;BME280;16267;48.194;11.546;2024-03-17T00:43:20;96649.50;;;9.10;100.00
29239;BME280;16267;48.194;11.546;2024-03-17T00:45:52;96644.16;;;9.10;100.00
29239;BME280;16267;48.194;11.546;2024-03-17T00:48:18;96646.44;;;9.11;100.00
29239;BME280;16267;48.194;11.546;2024-03-17T00:50:45;96641.06;;;9.11;100.00
29239;BME280;16267;48.194;11.546;2024-03-17T00:53:11;96643.75;;;9.11;100.00
29239;BME280;16267;48.194;11.546;2024-03-17T00:55:37;96638.41;;;9.11;100.00
29239;BME280;16267;48.194;11.546;2024-03-17T00:58:03;96641.47;;;9.10;100.00
29239;BME280;16267;48.194;11.546;2024-03-17T01:00:29;96644.13;;;9.06;100.00
29239;BME280;16267;48.194;11.546;2024-03-17T01:02:55;96633.38;;;9.03;100.00
29239;BME280;16267;48.194;11.546;2024-03-17T01:05:21;96628.78;;;9.03;100.00
29239;BME280;16267;48.194;11.546;2024-03-17T01:07:47;96638.34;;;9.01;100.00
29239;BME280;16267;48.194;11.546;2024-03-17T01:10:14;96624.94;;;8.97;100.00
29239;BME280;16267;48.194;11.546;2024-03-17T01:12:43;96635.25;;;8.95;100.00
29239;BME280;16267;48.194;11.546;2024-03-17T01:15:09;96636.38;;;8.87;100.00
29239;BME280;16267;48.194;11.546;2024-03-17T01:17:36;96634.44;;;8.87;100.00
29239;BME280;16267;48.194;11.546;2024-03-17T01:20:01;96637.47;;;8.82;100.00
29239;BME280;16267;48.194;11.546;2024-03-17T01:22:28;96636.31;;;8.83;100.00
29239;BME280;16267;48.194;11.546;2024-03-17T01:24:54;96632.47;;;8.81;100.00
29239;BME280;16267;48.194;11.546;2024-03-17T01:27:20;96620.59;;;8.75;100.00
29239;BME280;16267;48.194;11.546;2024-03-17T01:29:46;96625.56;;;8.76;100.00
29239;BME280;16267;48.194;11.546;2024-03-17T01:32:11;96614.13;;;8.79;100.00
29239;BME280;16267;48.194;11.546;2024-03-17T01:34:38;96609.13;;;8.74;100.00
29239;BME280;16267;48.194;11.546;2024-03-17T01:37:04;96609.13;;;8.74;100.00
29239;BME280;16267;48.194;11.546;2024-03-17T01:39:30;96613.31;;;8.71;100.00
29239;BME280;16267;48.194;11.546;2024-03-17T01:41:58;96611.78;;;8.70;100.00
29239;BME280;16267;48.194;11.546;2024-03-17T01:44:29;96600.66;;;8.68;100.00
29239;BME280;16267;48.194;11.546;2024-03-17T01:46:56;96610.97;;;8.66;100.00
29239;BME280;16267;48.194;11.546;2024-03-17T01:49:23;96608.69;;;8.65;100.00
29239;BME280;16267;48.194;11.546;2024-03-17T01:51:50;96599.47;;;8.62;100.00
29239;BME280;16267;48.194;11.546;2024-03-17T01:54:16;96604.06;;;8.62;100.00
29239;BME280;16267;48.194;11.546;2024-03-17T01:56:43;96607.84;;;8.57;100.00
29239;BME280;16267;48.194;11.546;2024-03-17T01:59:10;96603.19;;;8.51;100.00
29239;BME280;16267;48.194;11.546;2024-03-17T02:01:36;96607.38;;;8.44;100.00
29239;BME280;16267;48.194;11.546;2024-03-17T02:04:04;96600.78;;;8.35;100.00
29239;BME280;16267;48.194;11.546;2024-03-17T02:06:31;96604.97;;;8.36;100.00
29239;BME280;16267;48.194;11.546;2024-03-17T02:09:00;96606.16;;;8.38;100.00
29239;BME280;16267;48.194;11.546;2024-03-17T02:11:31;96604.97;;;8.36;100.00
29239;BME280;16267;48.194;11.546;2024-03-17T02:13:58;96591.19;;;8.34;100.00
29239;BME280;16267;48.194;11.546;2024-03-17T02:16:24;96601.84;;;8.26;100.00
29239;BME280;16267;48.194;11.546;2024-03-17T02:18:55;96600.34;;;8.29;100.00
29239;BME280;16267;48.194;11.546;2024-03-17T02:21:21;96589.66;;;8.29;100.00
29239;BME280;16267;48.194;11.546;2024-03-17T02:23:56;96595.75;;;8.30;100.00
29239;BME280;16267;48.194;11.546;2024-03-17T02:26:25;96596.53;;;8.30;100.00
29239;BME280;16267;48.194;11.546;2024-03-17T02:28:51;96595.03;;;8.33;100.00
29239;BME280;16267;48.194;11.546;2024-03-17T02:31:17;96587.00;;;8.33;100.00
29239;BME280;16267;48.194;11.546;2024-03-17T02:33:44;96585.50;;;8.35;100.00
29239;BME280;16267;48.194;11.546;2024-03-17T02:36:11;96581.66;;;8.36;100.00
29239;BME280;16267;48.194;11.546;2024-03-17T02:38:39;96583.22;;;8.37;100.00
29239;BME280;16267;48.194;11.546;2024-03-17T02:41:23;96584.03;;;8.41;100.00
29239;BME280;16267;48.194;11.546;2024-03-17T02:43:49;96585.97;;;8.44;100.00
29239;BME280;16267;48.194;11.546;2024-03-17T02:46:18;96582.16;;;8.45;100.00
29239;BME280;16267;48.194;11.546;2024-03-17T02:48:47;96572.63;;;8.48;100.00
29239;BME280;16267;48.194;11.546;2024-03-17T02:51:14;96572.63;;;8.48;100.00
29239;BME280;16267;48.194;11.546;2024-03-17T02:53:45;96563.06;;;8.47;100.00
29239;BME280;16267;48.194;11.546;2024-03-17T02:56:12;96551.94;;;8.45;100.00
29239;BME280;16267;48.194;11.546;2024-03-17T02:58:39;96553.13;;;8.47;100.00
29239;BME280;16267;48.194;11.546;2024-03-17T03:01:06;96555.00;;;8.43;100.00
29239;BME280;16267;48.194;11.546;2024-03-17T03:03:32;96561.53;;;8.46;100.00
29239;BME280;16267;48.194;11.546;2024-03-17T03:05:58;96553.91;;;8.48;100.00
29239;BME280;16267;48.194;11.546;2024-03-17T03:08:26;96556.97;;;8.50;100.00
29239;BME280;16267;48.194;11.546;2024-03-17T03:10:52;96557.34;;;8.52;100.00
29239;BME280;16267;48.194;11.546;2024-03-17T03:13:18;96561.19;;;8.55;100.00
29239;BME280;16267;48.194;11.546;2024-03-17T03:15:47;96549.34;;;8.56;100.00
29239;BME280;16267;48.194;11.546;2024-03-17T03:18:14;96552.44;;;8.58;100.00
29239;BME280;16267;48.194;11.546;2024-03-17T03:20:40;96548.16;;;8.46;100.00
29239;BME280;16267;48.194;11.546;2024-03-17T03:23:06;96550.44;;;8.47;100.00
29239;BME280;16267;48.194;11.546;2024-03-17T03:25:31;96554.66;;;8.48;100.00
29239;BME280;16267;48.194;11.546;2024-03-17T03:27:57;96555.84;;;8.51;100.00
29239;BME280;16267;48.194;11.546;2024-03-17T03:30:24;96552.78;;;8.53;100.00
29239;BME280;16267;48.194;11.546;2024-03-17T03:32:50;96552.41;;;8.54;100.00
29239;BME280;16267;48.194;11.546;2024-03-17T03:35:15;96554.69;;;8.56;100.00
29239;BME280;16267;48.194;11.546;2024-03-17T03:37:42;96542.09;;;8.56;100.00
29239;BME280;16267;48.194;11.546;2024-03-17T03:40:08;96545.16;;;8.55;100.00
29239;BME280;16267;48.194;11.546;2024-03-17T03:42:45;96548.97;;;8.54;100.00
29239;BME280;16267;48.194;11.546;2024-03-17T03:45:11;96548.97;;;8.54;100.00
29239;BME280;16267;48.194;11.546;2024-03-17T03:47:42;96541.72;;;8.54;100.00
29239;BME280;16267;48.194;11.546;2024-03-17T03:50:14;96547.44;;;8.56;100.00
29239;BME280;16267;48.194;11.546;2024-03-17T03:52:40;96546.31;;;8.57;100.00
29239;BME280;16267;48.194;11.546;2024-03-17T03:55:11;96550.50;;;8.58;100.00
29239;BME280;16267;48.194;11.546;2024-03-17T03:57:44;96541.72;;;8.58;100.00
29239;BME280;16267;48.194;11.546;2024-03-17T04:00:15;96551.28;;;8.59;100.00
29239;BME280;16267;48.194;11.546;2024-03-17T04:02:42;96546.66;;;8.56;100.00
29239;BME280;16267;48.194;11.546;2024-03-17T04:05:09;96537.13;;;8.55;100.00
29239;BME280;16267;48.194;11.546;2024-03-17T04:07:35;96537.88;;;8.55;100.00
29239;BME280;16267;48.194;11.546;2024-03-17T04:10:05;96537.88;;;8.55;100.00
29239;BME280;16267;48.194;11.546;2024-03-17T04:12:32;96536.38;;;8.58;100.00
29239;BME280;16267;48.194;11.546;2024-03-17T04:14:59;96532.53;;;8.59;100.00
29239;BME280;16267;48.194;11.546;2024-03-17T04:17:25;96535.63;;;8.61;100.00
29239;BME280;16267;48.194;11.546;2024-03-17T04:19:54;96542.53;;;8.62;100.00
29239;BME280;16267;48.194;11.546;2024-03-17T04:22:21;96545.22;;;8.62;100.00
29239;BME280;16267;48.194;11.546;2024-03-17T04:24:50;96547.50;;;8.63;100.00
29239;BME280;16267;48.194;11.546;2024-03-17T04:27:29;96543.66;;;8.64;100.00
29239;BME280;16267;48.194;11.546;2024-03-17T04:29:59;96539.06;;;8.61;100.00
29239;BME280;16267;48.194;11.546;2024-03-17T04:32:26;96541.38;;;8.63;100.00
29239;BME280;16267;48.194;11.546;2024-03-17T04:34:52;96545.97;;;8.62;100.00
29239;BME280;16267;48.194;11.546;2024-03-17T04:37:18;96545.22;;;8.62;100.00
29239;BME280;16267;48.194;11.546;2024-03-17T04:39:46;96551.31;;;8.62;100.00
29239;BME280;16267;48.194;11.546;2024-03-17T04:42:14;96557.44;;;8.63;100.00
29239;BME280;16267;48.194;11.546;2024-03-17T04:44:42;96550.16;;;8.63;100.00
29239;BME280;16267;48.194;11.546;2024-03-17T04:47:11;96544.47;;;8.65;100.00
29239;BME280;16267;48.194;11.546;2024-03-17T04:49:39;96552.84;;;8.63;100.00
29239;BME280;16267;48.194;11.546;2024-03-17T04:52:07;96547.13;;;8.65;100.00
29239;BME280;16267;48.194;11.546;2024-03-17T04:54:34;96557.44;;;8.66;100.00
29239;BME280;16267;48.194;11.546;2024-03-17T04:57:00;96545.22;;;8.65;100.00
29239;BME280;16267;48.194;11.546;2024-03-17T04:59:29;96545.22;;;8.65;100.00
29239;BME280;16267;48.194;11.546;2024-03-17T05:01:55;96547.91;;;8.65;100.00
29239;BME280;16267;48.194;11.546;2024-03-17T05:04:20;96549.81;;;8.65;100.00
29239;BME280;16267;48.194;11.546;2024-03-17T05:06:48;96537.56;;;8.64;100.00
29239;BME280;16267;48.194;11.546;2024-03-17T05:09:17;96541.00;;;8.64;100.00
29239;BME280;16267;48.194;11.546;2024-03-17T05:11:43;96547.09;;;8.61;100.00
29239;BME280;16267;48.194;11.546;2024-03-17T05:14:11;96552.44;;;8.61;100.00
29239;BME280;16267;48.194;11.546;2024-03-17T05:16:37;96554.00;;;8.62;100.00
29239;BME280;16267;48.194;11.546;2024-03-17T05:19:03;96554.75;;;8.59;100.00
29239;BME280;16267;48.194;11.546;2024-03-17T05:21:33;96547.47;;;8.60;100.00
29239;BME280;16267;48.194;11.546;2024-03-17T05:24:01;96552.81;;;8.60;100.00
29239;BME280;16267;48.194;11.546;2024-03-17T05:26:27;96551.69;;;8.61;100.00
29239;BME280;16267;48.194;11.546;2024-03-17T05:28:53;96552.81;;;8.60;100.00
29239;BME280;16267;48.194;11.546;2024-03-17T05:31:20;96554.75;;;8.59;100.00
29239;BME280;16267;48.194;11.546;2024-03-17T05:33:48;96555.09;;;8.58;100.00
29239;BME280;16267;48.194;11.546;2024-03-17T05:36:17;96555.88;;;8.58;100.00
29239;BME280;16267;48.194;11.546;2024-03-17T05:38:45;96560.44;;;8.54;100.00
29239;BME280;16267;48.194;11.546;2024-03-17T05:41:12;96561.94;;;8.48;100.00
29239;BME280;16267;48.194;11.546;2024-03-17T05:43:38;96561.94;;;8.48;100.00
29239;BME280;16267;48.194;11.546;2024-03-17T05:46:09;96568.78;;;8.45;100.00
29239;BME280;16267;48.194;11.546;2024-03-17T05:48:40;96570.28;;;8.43;100.00
29239;BME280;16267;48.194;11.546;2024-03-17T05:51:10;96576.03;;;8.45;100.00
29239;BME280;16267;48.194;11.546;2024-03-17T05:53:39;96567.63;;;8.46;100.00
29239;BME280;16267;48.194;11.546;2024-03-17T05:56:11;96566.06;;;8.42;100.00
29239;BME280;16267;48.194;11.546;2024-03-17T05:58:39;96568.41;;;8.47;100.00
29239;BME280;16267;48.194;11.546;2024-03-17T06:01:05;96566.91;;;8.49;100.00
29239;BME280;16267;48.194;11.546;2024-03-17T06:03:35;96567.69;;;8.54;100.00
29239;BME280;16267;48.194;11.546;2024-03-17T06:06:05;96567.31;;;8.55;100.00
29239;BME280;16267;48.194;11.546;2024-03-17T06:08:40;96564.28;;;8.57;100.00
29239;BME280;16267;48.194;11.546;2024-03-17T06:11:06;96573.47;;;8.59;100.00
29239;BME280;16267;48.194;11.546;2024-03-17T06:13:33;96563.94;;;8.62;100.00
29239;BME280;16267;48.194;11.546;2024-03-17T06:16:02;96571.97;;;8.65;100.00
29239;BME280;16267;48.194;11.546;2024-03-17T06:18:30;96563.19;;;8.65;100.00
29239;BME280;16267;48.194;11.546;2024-03-17T06:20:56;96567.03;;;8.67;100.00
29239;BME280;16267;48.194;11.546;2024-03-17T06:23:25;96562.06;;;8.69;100.00
29239;BME280;16267;48.194;11.546;2024-03-17T06:25:54;96553.28;;;8.73;100.00
29239;BME280;16267;48.194;11.546;2024-03-17T06:28:23;96563.63;;;8.74;100.00
29239;BME280;16267;48.194;11.546;2024-03-17T06:30:59;96561.69;;;8.71;100.00
29239;BME280;16267;48.194;11.546;2024-03-17T06:33:26;96558.66;;;8.76;100.00
29239;BME280;16267;48.194;11.546;2024-03-17T06:35:53;96556.41;;;8.82;100.00
29239;BME280;16267;48.194;11.546;2024-03-17T06:38:19;96558.31;;;8.81;100.00
29239;BME280;16267;48.194;11.546;2024-03-17T06:40:52;96576.31;;;8.88;100.00
29239;BME280;16267;48.194;11.546;2024-03-17T06:43:19;96576.72;;;8.93;100.00
29239;BME280;16267;48.194;11.546;2024-03-17T06:45:57;96568.72;;;8.97;100.00
29239;BME280;16267;48.194;11.546;2024-03-17T06:48:24;96566.44;;;9.03;100.00
29239;BME280;16267;48.194;11.546;2024-03-17T06:50:51;96564.94;;;9.05;100.00
29239;BME280;16267;48.194;11.546;2024-03-17T06:53:24;96568.00;;;9.07;100.00
29239;BME280;16267;48.194;11.546;2024-03-17T06:55:59;96568.00;;;9.11;100.00
29239;BME280;16267;48.194;11.546;2024-03-17T06:58:27;96563.06;;;9.13;100.00
29239;BME280;16267;48.194;11.546;2024-03-17T07:01:00;96562.66;;;9.11;98.44
29239;BME280;16267;48.194;11.546;2024-03-17T07:03:31;96560.78;;;9.15;99.25
29239;BME280;16267;48.194;11.546;2024-03-17T07:05:59;96561.94;;;9.18;98.52
29239;BME280;16267;48.194;11.546;2024-03-17T07:08:30;96557.34;;;9.22;98.57
29239;BME280;16267;48.194;11.546;2024-03-17T07:11:07;96568.06;;;9.22;97.26
29239;BME280;16267;48.194;11.546;2024-03-17T07:13:35;96569.25;;;9.31;99.04
29239;BME280;16267;48.194;11.546;2024-03-17T07:16:03;96568.47;;;9.27;97.26
29239;BME280;16267;48.194;11.546;2024-03-17T07:18:31;96565.84;;;9.38;97.98
29239;BME280;16267;48.194;11.546;2024-03-17T07:20:59;96563.94;;;9.46;96.93
29239;BME280;16267;48.194;11.546;2024-03-17T07:23:27;96558.59;;;9.53;98.62
29239;BME280;16267;48.194;11.546;2024-03-17T07:26:00;96562.06;;;9.53;97.57
29239;BME280;16267;48.194;11.546;2024-03-17T07:28:26;96565.44;;;9.36;97.46
29239;BME280;16267;48.194;11.546;2024-03-17T07:30:58;96553.19;;;9.42;98.00
29239;BME280;16267;48.194;11.546;2024-03-17T07:33:26;96558.22;;;9.54;98.85
29239;BME280;16267;48.194;11.546;2024-03-17T07:35:53;96554.03;;;9.53;97.44
29239;BME280;16267;48.194;11.546;2024-03-17T07:38:20;96557.88;;;9.63;97.42
29239;BME280;16267;48.194;11.546;2024-03-17T07:41:05;96559.81;;;9.73;96.66
29239;BME280;16267;48.194;11.546;2024-03-17T07:43:36;96556.38;;;9.83;95.29
29239;BME280;16267;48.194;11.546;2024-03-17T07:46:08;96557.53;;;9.93;94.20
29239;BME280;16267;48.194;11.546;2024-03-17T07:48:36;96559.84;;;10.02;94.50
29239;BME280;16267;48.194;11.546;2024-03-17T07:51:13;96548.38;;;10.12;94.71
29239;BME280;16267;48.194;11.546;2024-03-17T07:53:43;96551.81;;;10.23;94.62
29239;BME280;16267;48.194;11.546;2024-03-17T07:56:18;96551.03;;;9.87;91.49
29239;BME280;16267;48.194;11.546;2024-03-17T07:58:45;96543.75;;;10.02;92.27
29239;BME280;16267;48.194;11.546;2024-03-17T08:01:16;96544.16;;;10.18;95.37
29239;BME280;16267;48.194;11.546;2024-03-17T08:03:47;96539.19;;;10.31;93.59
29239;BME280;16267;48.194;11.546;2024-03-17T08:06:21;96542.25;;;10.30;90.30
29239;BME280;16267;48.194;11.546;2024-03-17T08:08:47;96531.13;;;10.45;92.34
29239;BME280;16267;48.194;11.546;2024-03-17T08:11:13;96532.25;;;10.55;91.34
29239;BME280;16267;48.194;11.546;2024-03-17T08:13:39;96531.47;;;10.65;89.72
29239;BME280;16267;48.194;11.546;2024-03-17T08:16:07;96525.34;;;10.76;90.10
29239;BME280;16267;48.194;11.546;2024-03-17T08:18:34;96521.47;;;10.77;88.08
29239;BME280;16267;48.194;11.546;2024-03-17T08:21:02;96524.53;;;10.89;89.44
29239;BME280;16267;48.194;11.546;2024-03-17T08:23:30;96515.69;;;10.92;87.13
29239;BME280;16267;48.194;11.546;2024-03-17T08:25:58;96519.84;;;11.08;89.66
29239;BME280;16267;48.194;11.546;2024-03-17T08:28:25;96516.75;;;11.13;86.72
29239;BME280;16267;48.194;11.546;2024-03-17T08:31:03;96518.63;;;11.23;87.21
29239;BME280;16267;48.194;11.546;2024-03-17T08:33:29;96518.59;;;11.34;86.65
29239;BME280;16267;48.194;11.546;2024-03-17T08:35:58;96523.91;;;11.45;87.50
29239;BME280;16267;48.194;11.546;2024-03-17T08:38:26;96518.94;;;11.39;86.56
29239;BME280;16267;48.194;11.546;2024-03-17T08:41:01;96506.94;;;11.55;89.07
29239;BME280;16267;48.194;11.546;2024-03-17T08:43:27;96516.53;;;11.59;86.54
29239;BME280;16267;48.194;11.546;2024-03-17T08:46:08;96511.47;;;11.69;85.82
29239;BME280;16267;48.194;11.546;2024-03-17T08:48:37;96506.78;;;11.80;87.63
29239;BME280;16267;48.194;11.546;2024-03-17T08:51:05;96508.25;;;11.95;89.37
29239;BME280;16267;48.194;11.546;2024-03-17T08:53:32;96502.72;;;12.13;89.90
29239;BME280;16267;48.194;11.546;2024-03-17T08:55:59;96498.88;;;12.14;84.90
29239;BME280;16267;48.194;11.546;2024-03-17T08:58:27;96498.22;;;11.99;81.68
29239;BME280;16267;48.194;11.546;2024-03-17T09:00:52;96494.66;;;12.17;84.51
29239;BME280;16267;48.194;11.546;2024-03-17T09:03:18;96486.78;;;12.33;84.08
29239;BME280;16267;48.194;11.546;2024-03-17T09:05:47;96494.28;;;12.56;86.75
29239;BME280;16267;48.194;11.546;2024-03-17T09:08:18;96487.66;;;12.61;83.29
29239;BME280;16267;48.194;11.546;2024-03-17T09:10:50;96481.19;;;12.55;79.24
29239;BME280;16267;48.194;11.546;2024-03-17T09:13:22;96483.09;;;12.58;79.29
29239;BME280;16267;48.194;11.546;2024-03-17T09:15:55;96479.84;;;12.73;79.91
29239;BME280;16267;48.194;11.546;2024-03-17T09:18:23;96470.03;;;12.90;82.41
29239;BME280;16267;48.194;11.546;2024-03-17T09:21:04;96469.03;;;13.08;81.76
29239;BME280;16267;48.194;11.546;2024-03-17T09:23:32;96465.59;;;13.07;77.81
29239;BME280;16267;48.194;11.546;2024-03-17T09:26:03;96468.44;;;13.27;80.07
29239;BME280;16267;48.194;11.546;2024-03-17T09:28:33;96467.78;;;13.47;81.85
29239;BME280;16267;48.194;11.546;2024-03-17T09:30:59;96472.72;;;13.52;77.79
29239;BME280;16267;48.194;11.546;2024-03-17T09:33:28;96474.06;;;13.67;79.06
29239;BME280;16267;48.194;11.546;2024-03-17T09:36:00;96465.34;;;13.83;81.24
29239;BME280;16267;48.194;11.546;2024-03-17T09:38:29;96467.41;;;13.99;76.95
29239;BME280;16267;48.194;11.546;2024-03-17T09:40:55;96474.09;;;14.14;76.18
29239;BME280;16267;48.194;11.546;2024-03-17T09:43:27;96476.66;;;14.21;75.47
29239;BME280;16267;48.194;11.546;2024-03-17T09:45:54;96467.16;;;14.37;77.11
29239;BME280;16267;48.194;11.546;2024-03-17T09:48:27;96466.53;;;14.49;73.30
29239;BME280;16267;48.194;11.546;2024-03-17T09:50:55;96464.53;;;14.33;69.30
29239;BME280;16267;48.194;11.546;2024-03-17T09:53:33;96453.81;;;14.49;71.95
29239;BME280;16267;48.194;11.546;2024-03-17T09:56:16;96448.66;;;14.59;72.04
29239;BME280;16267;48.194;11.546;2024-03-17T09:58:48;96448.50;;;14.66;68.59
29239;BME280;16267;48.194;11.546;2024-03-17T10:01:15;96440.63;;;14.75;68.67
29239;BME280;16267;48.194;11.546;2024-03-17T10:03:50;96442.63;;;14.71;65.85
29239;BME280;16267;48.194;11.546;2024-03-17T10:06:25;96443.19;;;14.82;64.58
29239;BME280;16267;48.194;11.546;2024-03-17T10:09:02;96443.34;;;14.75;64.81
29239;BME280;16267;48.194;11.546;2024-03-17T10:11:36;96447.69;;;14.89;65.29
29239;BME280;16267;48.194;11.546;2024-03-17T10:14:07;96448.91;;;15.04;66.64
29239;BME280;16267;48.194;11.546;2024-03-17T10:16:37;96450.31;;;14.92;61.94
29239;BME280;16267;48.194;11.546;2024-03-17T10:19:15;96447.69;;;14.89;62.98
29239;BME280;16267;48.194;11.546;2024-03-17T10:21:46;96440.88;;;15.01;63.01
29239;BME280;16267;48.194;11.546;2024-03-17T10:24:26;96444.97;;;15.09;62.57
29239;BME280;16267;48.194;11.546;2024-03-17T10:26:56;96439.66;;;15.05;60.30
29239;BME280;16267;48.194;11.546;2024-03-17T10:29:24;96428.88;;;15.02;59.44
29239;BME280;16267;48.194;11.546;2024-03-17T10:32:03;96433.25;;;14.95;60.02
29239;BME280;16267;48.194;11.546;2024-03-17T10:34:31;96436.66;;;15.00;59.70
29239;BME280;16267;48.194;11.546;2024-03-17T10:37:11;96432.25;;;14.89;58.10
29239;BME280;16267;48.194;11.546;2024-03-17T10:39:43;96432.44;;;14.99;57.53
29239;BME280;16267;48.194;11.546;2024-03-17T10:42:13;96431.97;;;15.20;62.12
29239;BME280;16267;48.194;11.546;2024-03-17T10:44:43;96433.22;;;15.35;62.68
29239;BME280;16267;48.194;11.546;2024-03-17T10:47:29;96430.19;;;15.50;63.61
29239;BME280;16267;48.194;11.546;2024-03-17T10:49:56;96437.38;;;15.56;62.06
29239;BME280;16267;48.194;11.546;2024-03-17T10:52:23;96430.19;;;15.66;62.34
29239;BME280;16267;48.194;11.546;2024-03-17T10:54:54;96422.31;;;15.55;54.89
29239;BME280;16267;48.194;11.546;2024-03-17T10:57:46;96423.13;;;15.72;60.91
29239;BME280;16267;48.194;11.546;2024-03-17T11:00:16;96420.97;;;15.64;56.17
29239;BME280;16267;48.194;11.546;2024-03-17T11:02:48;96423.59;;;15.67;57.73
29239;BME280;16267;48.194;11.546;2024-03-17T11:05:28;96411.09;;;15.73;58.70
29239;BME280;16267;48.194;11.546;2024-03-17T11:08:00;96404.78;;;15.80;59.74
29239;BME280;16267;48.194;11.546;2024-03-17T11:10:30;96408.59;;;15.82;58.64
29239;BME280;16267;48.194;11.546;2024-03-17T11:13:02;96399.94;;;15.88;59.60
29239;BME280;16267;48.194;11.546;2024-03-17T11:20:34;96396.19;;;15.98;57.91
29239;BME280;16267;48.194;11.546;2024-03-17T11:23:01;96388.41;;;16.00;57.40
29239;BME280;16267;48.194;11.546;2024-03-17T11:27:57;96384.09;;;16.02;56.83
29239;BME280;16267;48.194;11.546;2024-03-17T11:39:09;96385.94;;;16.22;58.62
29239;BME280;16267;48.194;11.546;2024-03-17T11:41:50;96385.97;;;16.35;58.33
29239;BME280;16267;48.194;11.546;2024-03-17T11:46:56;96390.63;;;16.63;55.86
29239;BME280;16267;48.194;11.546;2024-03-17T11:49:40;96387.81;;;16.67;57.53
29239;BME280;16267;48.194;11.546;2024-03-17T11:52:16;96390.50;;;16.67;56.72
29239;BME280;16267;48.194;11.546;2024-03-17T11:54:46;96384.34;;;16.66;56.02
29239;BME280;16267;48.194;11.546;2024-03-17T11:57:25;96391.25;;;16.55;54.03
29239;BME280;16267;48.194;11.546;2024-03-17T11:59:54;96392.56;;;16.63;56.07
29239;BME280;16267;48.194;11.546;2024-03-17T12:02:21;96394.53;;;16.75;57.86
29239;BME280;16267;48.194;11.546;2024-03-17T12:04:49;96389.88;;;16.76;56.31
29239;BME280;16267;48.194;11.546;2024-03-17T12:07:21;96384.56;;;16.72;54.37
29239;BME280;16267;48.194;11.546;2024-03-17T12:09:52;96386.59;;;16.68;52.86
29239;BME280;16267;48.194;11.546;2024-03-17T12:12:26;96383.03;;;16.71;53.86
29239;BME280;16267;48.194;11.546;2024-03-17T12:15:03;96377.06;;;16.63;53.17
29239;BME280;16267;48.194;11.546;2024-03-17T12:17:30;96371.19;;;16.65;54.78
29239;BME280;16267;48.194;11.546;2024-03-17T12:19:55;96371.72;;;16.60;53.19
29239;BME280;16267;48.194;11.546;2024-03-17T12:22:24;96364.78;;;16.59;53.44
29239;BME280;16267;48.194;11.546;2024-03-17T12:24:57;96359.38;;;16.59;52.73
29239;BME280;16267;48.194;11.546;2024-03-17T12:27:26;96353.53;;;16.60;54.14
29239;BME280;16267;48.194;11.546;2024-03-17T12:29:54;96347.69;;;16.62;54.75
29239;BME280;16267;48.194;11.546;2024-03-17T12:32:25;96340.31;;;16.62;54.24
29239;BME280;16267;48.194;11.546;2024-03-17T12:34:53;96343.00;;;16.62;53.61
29239;BME280;16267;48.194;11.546;2024-03-17T12:37:25;96339.31;;;16.43;51.46
29239;BME280;16267;48.194;11.546;2024-03-17T12:40:00;96341.56;;;16.45;54.08
29239;BME280;16267;48.194;11.546;2024-03-17T12:42:28;96335.91;;;16.39;52.96
29239;BME280;16267;48.194;11.546;2024-03-17T12:44:59;96340.47;;;16.42;54.30
29239;BME280;16267;48.194;11.546;2024-03-17T12:47:31;96332.00;;;16.40;53.63
29239;BME280;16267;48.194;11.546;2024-03-17T12:49:58;96329.44;;;16.49;55.11
29239;BME280;16267;48.194;11.546;2024-03-17T12:52:33;96336.72;;;16.53;54.03
29239;BME280;16267;48.194;11.546;2024-03-17T12:55:09;96333.16;;;16.56;53.57
29239;BME280;16267;48.194;11.546;2024-03-17T13:01:00;96329.31;;;16.40;52.93
29239;BME280;16267;48.194;11.546;2024-03-17T13:03:36;96326.06;;;16.45;53.28
29239;BME280;16267;48.194;11.546;2024-03-17T13:06:05;96318.16;;;16.38;51.37
29239;BME280;16267;48.194;11.546;2024-03-17T13:08:35;96330.50;;;16.39;53.41
29239;BME280;16267;48.194;11.546;2024-03-17T13:11:02;96329.19;;;16.31;52.90
29239;BME280;16267;48.194;11.546;2024-03-17T13:13:31;96326.06;;;16.33;53.31
29239;BME280;16267;48.194;11.546;2024-03-17T13:15:57;96335.28;;;16.35;53.08
29239;BME280;16267;48.194;11.546;2024-03-17T13:18:24;96331.47;;;16.33;52.92
29239;BME280;16267;48.194;11.546;2024-03-17T13:20:50;96327.16;;;16.35;53.43
29239;BME280;16267;48.194;11.546;2024-03-17T13:23:17;96332.16;;;16.08;52.44
29239;BME280;16267;48.194;11.546;2024-03-17T13:25:42;96332.97;;;15.75;53.58